Time;durP1;ratioP1;P1;durP2;ratioP2;P2;SDS_P1;SDS_P2;PMS_P1;PMS_P2;Temp;Humidity;BMP_temperature;BMP_pressure;BME280_temperature;BME280_humidity;BME280_pressure;Samples;Min_cycle;Max_cycle;Signal;HPM_P1;HPM_P2
2022/04/17 00:01:07;;;;;;;0.13;0.13;;;4.60;99.90;;;;;;5074908;28;20044;-83
2022/04/17 00:03:34;;;;;;;0.20;0.20;;;4.70;99.90;;;;;;5108150;28;20059;-80
2022/04/17 00:06:00;;;;;;;0.20;0.20;;;4.50;99.90;;;;;;5074630;28;20116;-80
2022/04/17 00:08:27;;;;;;;0.15;0.15;;;4.50;99.90;;;;;;5091341;28;20044;-80
2022/04/17 00:10:54;;;;;;;0.10;0.10;;;4.70;99.90;;;;;;5091271;28;20098;-80
2022/04/17 00:13:21;;;;;;;0.95;0.40;;;4.40;99.90;;;;;;5091604;28;20101;-80
2022/04/17 00:15:47;;;;;;;0.15;0.15;;;4.40;99.90;;;;;;5074563;28;20435;-82
2022/04/17 00:18:15;;;;;;;0.30;0.30;;;4.40;99.90;;;;;;5090512;28;20101;-82
2022/04/17 00:20:42;;;;;;;0.20;0.20;;;4.30;99.90;;;;;;5058409;28;20036;-83
2022/04/17 00:23:09;;;;;;;0.20;0.20;;;4.90;99.90;;;;;;5074345;28;20135;-82
2022/04/17 00:25:35;;;;;;;0.30;0.30;;;4.30;99.90;;;;;;5074738;28;20568;-83
2022/04/17 00:28:02;;;;;;;0.22;0.22;;;4.40;99.90;;;;;;5074063;28;20062;-80
2022/04/17 00:30:29;;;;;;;0.10;0.10;;;4.30;99.90;;;;;;5057882;28;20142;-83
2022/04/17 00:32:56;;;;;;;0.30;0.30;;;4.30;99.90;;;;;;5073876;28;20040;-80
2022/04/17 00:35:22;;;;;;;0.20;0.20;;;4.50;99.90;;;;;;5090705;28;20068;-82
2022/04/17 00:37:49;;;;;;;0.10;0.10;;;4.30;99.90;;;;;;5090116;28;20059;-82
2022/04/17 00:40:16;;;;;;;0.73;0.73;;;4.20;99.90;;;;;;5073832;28;20043;-82
2022/04/17 00:42:43;;;;;;;0.20;0.20;;;4.20;99.90;;;;;;5057560;28;20401;-80
2022/04/17 00:45:09;;;;;;;0.85;0.60;;;4.20;99.90;;;;;;5073805;28;20562;-83
2022/04/17 00:47:36;;;;;;;0.20;0.20;;;4.20;99.90;;;;;;5073979;28;20044;-80
2022/04/17 00:50:05;;;;;;;0.20;0.20;;;4.20;99.90;;;;;;5090148;28;20044;-80
2022/04/17 00:52:32;;;;;;;0.20;0.20;;;4.20;99.90;;;;;;5074243;28;20041;-82
2022/04/17 00:55:02;;;;;;;0.20;0.20;;;4.20;99.90;;;;;;5090106;28;20412;-80
2022/04/17 00:57:29;;;;;;;0.50;0.50;;;4.20;99.90;;;;;;5090032;28;20037;-82
2022/04/17 00:59:57;;;;;;;0.20;0.20;;;4.10;99.90;;;;;;5073573;28;20040;-80
2022/04/17 01:02:24;;;;;;;0.20;0.20;;;4.50;99.90;;;;;;5074135;28;20094;-80
2022/04/17 01:04:51;;;;;;;0.20;0.20;;;4.20;99.90;;;;;;5090231;28;20041;-80
2022/04/17 01:07:22;;;;;;;0.10;0.10;;;4.10;99.90;;;;;;5073301;28;20127;-80
2022/04/17 01:09:51;;;;;;;0.28;0.28;;;4.50;99.90;;;;;;5090060;28;20045;-82
2022/04/17 01:12:18;;;;;;;0.20;0.20;;;4.40;99.90;;;;;;5090051;28;20082;-82
2022/04/17 01:14:45;;;;;;;0.20;0.20;;;4.80;99.90;;;;;;5073233;28;20040;-80
2022/04/17 01:17:12;;;;;;;0.20;0.20;;;4.00;99.90;;;;;;5089168;28;20045;-82
2022/04/17 01:19:42;;;;;;;0.20;0.20;;;4.00;99.90;;;;;;5073668;28;20040;-83
2022/04/17 01:22:13;;;;;;;0.20;0.20;;;4.30;99.90;;;;;;5089557;28;20040;-80
2022/04/17 01:27:26;;;;;;;0.20;0.20;;;3.80;99.90;;;;;;5078326;28;20760;-80
2022/04/17 01:29:53;;;;;;;0.20;0.20;;;3.80;99.90;;;;;;5088701;28;20044;-83
2022/04/17 01:32:21;;;;;;;0.20;0.20;;;3.90;99.90;;;;;;5073276;28;20045;-82
2022/04/17 01:34:48;;;;;;;0.20;0.20;;;3.80;99.90;;;;;;5090057;28;20044;-80
2022/04/17 01:37:16;;;;;;;0.20;0.20;;;3.80;99.90;;;;;;5088839;28;20060;-80
2022/04/17 01:39:43;;;;;;;0.20;0.20;;;3.70;99.90;;;;;;5090158;28;20067;-80
2022/04/17 01:42:11;;;;;;;0.20;0.20;;;3.70;99.90;;;;;;5089573;28;20075;-82
2022/04/17 01:44:38;;;;;;;0.22;0.22;;;3.70;99.90;;;;;;5089367;28;20032;-82
2022/04/17 01:47:05;;;;;;;0.20;0.20;;;3.80;99.90;;;;;;5089861;28;20072;-80
2022/04/17 01:49:32;;;;;;;0.20;0.20;;;4.20;99.90;;;;;;5106145;28;20127;-82
2022/04/17 01:52:00;;;;;;;0.20;0.20;;;3.70;99.90;;;;;;5073025;28;20041;-80
2022/04/17 01:54:28;;;;;;;0.28;0.28;;;3.60;99.90;;;;;;5089659;28;20055;-80
2022/04/17 01:56:55;;;;;;;0.20;0.20;;;3.50;99.90;;;;;;5089532;28;20032;-80
2022/04/17 01:59:23;;;;;;;0.20;0.20;;;3.90;99.90;;;;;;5106316;28;20040;-80
2022/04/17 02:01:51;;;;;;;0.20;0.20;;;3.50;99.90;;;;;;5089706;28;20174;-82
2022/04/17 02:04:18;;;;;;;0.20;0.20;;;3.40;99.90;;;;;;5072980;28;20036;-80
2022/04/17 02:06:45;;;;;;;0.20;0.20;;;3.40;99.90;;;;;;5089861;28;20037;-82
2022/04/17 02:09:14;;;;;;;0.20;0.20;;;4.10;99.90;;;;;;5072350;28;20063;-80
2022/04/17 02:11:42;;;;;;;0.20;0.20;;;3.90;99.90;;;;;;5089353;28;20067;-80
2022/04/17 02:14:10;;;;;;;0.20;0.20;;;4.10;99.90;;;;;;5088978;28;20044;-80
2022/04/17 02:16:37;;;;;;;0.20;0.20;;;3.30;99.90;;;;;;5089310;28;20052;-82
2022/04/17 02:19:04;;;;;;;0.10;0.10;;;3.20;99.90;;;;;;5105377;28;20043;-82
2022/04/17 02:21:31;;;;;;;0.10;0.10;;;3.60;99.90;;;;;;5088940;28;20493;-80
2022/04/17 02:24:00;;;;;;;0.20;0.20;;;3.60;99.90;;;;;;5072719;28;20041;-83
2022/04/17 02:26:27;;;;;;;0.20;0.20;;;3.20;99.90;;;;;;5072546;28;20087;-80
2022/04/17 02:28:56;;;;;;;0.20;0.20;;;3.20;99.90;;;;;;5072579;28;20458;-82
2022/04/17 02:31:23;;;;;;;0.13;0.13;;;3.60;99.90;;;;;;5089032;28;20050;-80
2022/04/17 02:33:50;;;;;;;0.20;0.20;;;3.10;99.90;;;;;;5088984;28;20404;-80
2022/04/17 02:36:18;;;;;;;0.20;0.20;;;3.20;99.90;;;;;;5088472;28;20052;-80
2022/04/17 02:38:45;;;;;;;0.28;0.28;;;3.10;99.90;;;;;;5089061;28;20044;-82
2022/04/17 02:41:12;;;;;;;0.30;0.30;;;3.00;99.90;;;;;;5073370;28;20059;-82
2022/04/17 02:43:39;;;;;;;0.20;0.20;;;3.40;99.90;;;;;;5093285;28;20040;-82
2022/04/17 02:46:06;;;;;;;0.22;0.22;;;3.30;99.90;;;;;;5092375;28;20508;-82
2022/04/17 02:48:34;;;;;;;0.20;0.20;;;2.90;99.90;;;;;;5109969;28;20041;-82
2022/04/17 02:51:02;;;;;;;0.20;0.20;;;2.90;99.90;;;;;;5076504;28;20059;-82
2022/04/17 02:53:30;;;;;;;0.20;0.20;;;2.90;99.90;;;;;;5092502;28;20044;-80
2022/04/17 02:55:57;;;;;;;0.20;0.20;;;3.50;99.90;;;;;;5076585;28;20032;-80
2022/04/17 02:58:24;;;;;;;0.25;0.25;;;2.90;99.90;;;;;;5075652;28;20400;-82
2022/04/17 03:06:21;;;;;;;0.20;0.20;;;2.80;99.90;;;;;;5080667;28;20413;-82
2022/04/17 03:08:47;;;;;;;0.20;0.20;;;2.80;99.90;;;;;;5059599;28;20036;-80
2022/04/17 03:11:15;;;;;;;0.20;0.20;;;2.70;99.90;;;;;;5059014;28;20051;-82
2022/04/17 03:13:42;;;;;;;0.17;0.17;;;2.80;99.90;;;;;;5108965;28;20162;-80
2022/04/17 03:16:11;;;;;;;0.20;0.20;;;2.70;99.90;;;;;;5058780;28;20044;-82
2022/04/17 03:18:37;;;;;;;0.20;0.20;;;2.70;99.90;;;;;;5076623;28;20040;-80
2022/04/17 03:21:04;;;;;;;0.20;0.20;;;3.40;99.90;;;;;;5092551;28;20405;-80
2022/04/17 03:23:31;;;;;;;0.20;0.20;;;2.80;99.90;;;;;;5059238;28;20039;-80
2022/04/17 03:25:58;;;;;;;0.20;0.20;;;2.80;99.90;;;;;;5075752;28;20787;-82
2022/04/17 03:28:25;;;;;;;0.20;0.20;;;3.40;99.90;;;;;;5091929;28;20094;-80
2022/04/17 03:30:51;;;;;;;0.20;0.20;;;2.90;99.90;;;;;;5075650;28;20041;-82
2022/04/17 03:33:18;;;;;;;0.20;0.20;;;2.60;99.90;;;;;;5075201;28;20037;-82
2022/04/17 03:35:45;;;;;;;0.20;0.20;;;2.50;99.90;;;;;;5075065;28;20075;-80
2022/04/17 03:38:11;;;;;;;0.20;0.20;;;2.50;99.90;;;;;;5091347;28;20049;-82
2022/04/17 03:40:38;;;;;;;0.20;0.20;;;3.00;99.90;;;;;;5059174;28;20159;-80
2022/04/17 03:43:05;;;;;;;0.20;0.20;;;3.40;99.90;;;;;;5092109;28;20041;-83
2022/04/17 03:45:32;;;;;;;0.20;0.20;;;2.40;99.90;;;;;;5075042;28;20048;-80
2022/04/17 03:47:59;;;;;;;0.20;0.20;;;2.60;99.90;;;;;;5108579;28;20112;-80
2022/04/17 03:50:26;;;;;;;0.20;0.20;;;2.40;99.90;;;;;;5091407;28;20043;-82
2022/04/17 03:52:54;;;;;;;0.13;0.13;;;2.50;99.90;;;;;;5107243;28;20041;-80
2022/04/17 03:55:20;;;;;;;0.25;0.25;;;3.20;99.90;;;;;;5091510;28;20048;-80
2022/04/17 03:57:47;;;;;;;0.20;0.20;;;2.90;99.90;;;;;;5058264;28;20581;-80
2022/04/17 04:00:15;;;;;;;0.25;0.25;;;2.30;99.90;;;;;;5091153;28;20039;-80
2022/04/17 04:02:42;;;;;;;0.20;0.20;;;2.40;99.90;;;;;;5091420;28;20037;-80
2022/04/17 04:05:10;;;;;;;0.55;0.55;;;2.30;99.90;;;;;;5074999;28;20366;-80
2022/04/17 04:07:38;;;;;;;0.20;0.20;;;2.30;99.90;;;;;;5074738;28;20048;-79
2022/04/17 04:10:07;;;;;;;0.20;0.20;;;2.30;99.90;;;;;;5091503;28;20037;-80
2022/04/17 04:12:35;;;;;;;0.20;0.20;;;2.30;99.90;;;;;;5074613;28;20037;-80
2022/04/17 04:15:02;;;;;;;0.20;0.20;;;3.00;99.90;;;;;;5074315;28;20036;-79
2022/04/17 04:17:29;;;;;;;0.30;0.30;;;2.20;99.90;;;;;;5107086;28;20493;-80
2022/04/17 04:19:56;;;;;;;0.20;0.20;;;2.20;99.90;;;;;;5090956;28;20033;-80
2022/04/17 04:22:22;;;;;;;0.25;0.25;;;2.10;99.90;;;;;;5074076;28;20044;-80
2022/04/17 04:24:49;;;;;;;0.20;0.20;;;2.10;99.90;;;;;;5074701;28;20033;-82
2022/04/17 04:30:02;;;;;;;0.30;0.30;;;2.10;99.90;;;;;;5093362;28;20102;-82
2022/04/17 04:32:29;;;;;;;0.22;0.22;;;2.00;99.90;;;;;;5106578;28;20778;-82
2022/04/17 04:35:02;;;;;;;0.95;0.90;;;2.00;99.90;;;;;;5090886;28;20048;-82
2022/04/17 04:37:28;;;;;;;0.30;0.30;;;2.10;99.90;;;;;;5090224;28;20060;-82
2022/04/17 04:39:56;;;;;;;0.20;0.20;;;2.10;99.90;;;;;;5074108;28;20052;-80
2022/04/17 04:42:23;;;;;;;0.30;0.30;;;2.10;99.90;;;;;;5074092;28;20028;-82
2022/04/17 04:46:06;;;;;;;0.25;0.25;;;3.00;99.90;;;;;;5074092;28;20567;-82
2022/04/17 04:47:36;;;;;;;0.30;0.30;;;2.20;99.90;;;;;;5092780;28;20044;-80
2022/04/17 04:50:03;;;;;;;0.20;0.20;;;3.00;99.90;;;;;;5074118;28;20044;-80
2022/04/17 04:52:35;;;;;;;0.20;0.20;;;2.20;99.90;;;;;;5073743;28;20040;-82
2022/04/17 04:55:02;;;;;;;0.20;0.20;;;2.10;99.90;;;;;;5073965;28;20044;-83
2022/04/17 04:57:29;;;;;;;0.20;0.20;;;2.20;99.90;;;;;;5106571;28;20048;-82
2022/04/17 04:59:56;;;;;;;0.50;0.50;;;2.20;99.90;;;;;;5090234;28;20039;-82
2022/04/17 05:02:23;;;;;;;0.20;0.20;;;2.50;99.90;;;;;;5057122;28;20106;-80
2022/04/17 05:04:49;;;;;;;0.20;0.20;;;2.30;99.90;;;;;;5089960;28;20041;-79
2022/04/17 05:07:16;;;;;;;0.20;0.20;;;2.30;99.90;;;;;;5090266;28;20044;-83
2022/04/17 05:09:43;;;;;;;0.60;0.60;;;2.90;99.90;;;;;;5089719;28;20139;-82
2022/04/17 05:12:10;;;;;;;0.20;0.20;;;2.40;99.90;;;;;;5073851;28;20078;-80
2022/04/17 05:14:41;;;;;;;0.20;0.20;;;2.40;99.90;;;;;;5089991;28;20117;-82
2022/04/17 05:17:11;;;;;;;0.20;0.20;;;2.50;99.90;;;;;;5063917;28;20036;-83
2022/04/17 05:19:38;;;;;;;0.30;0.30;;;2.50;99.90;;;;;;5082996;28;20043;-81
2022/04/17 05:22:10;;;;;;;0.40;0.40;;;2.60;99.90;;;;;;5053851;28;20041;-82
2022/04/17 05:24:40;;;;;;;0.30;0.30;;;2.70;99.90;;;;;;5086925;28;20123;-81
2022/04/17 05:27:07;;;;;;;0.30;0.30;;;2.80;99.90;;;;;;5065601;28;20040;-80
2022/04/17 05:29:34;;;;;;;0.32;0.32;;;2.90;99.90;;;;;;5089359;28;20052;-80
2022/04/17 05:32:01;;;;;;;0.50;0.50;;;3.00;99.90;;;;;;5089615;28;20041;-83
2022/04/17 05:34:28;;;;;;;0.20;0.20;;;3.00;99.90;;;;;;5089243;28;20040;-82
2022/04/17 05:36:55;;;;;;;0.20;0.20;;;3.10;99.90;;;;;;5073087;28;20111;-80
2022/04/17 05:39:22;;;;;;;0.30;0.30;;;3.20;99.90;;;;;;5093764;28;20052;-82
2022/04/17 05:41:50;;;;;;;0.30;0.30;;;4.20;99.90;;;;;;5082307;28;20036;-80
2022/04/17 05:44:16;;;;;;;0.50;0.50;;;3.30;99.90;;;;;;5076081;28;20032;-80
2022/04/17 05:46:43;;;;;;;0.20;0.20;;;3.40;99.90;;;;;;5089089;28;20044;-80
2022/04/17 05:49:10;;;;;;;0.30;0.30;;;3.60;99.90;;;;;;5106029;28;20051;-83
2022/04/17 05:51:38;;;;;;;0.20;0.20;;;3.90;99.90;;;;;;5089058;28;20048;-82
2022/04/17 05:54:07;;;;;;;0.30;0.30;;;3.80;99.90;;;;;;5072759;28;20041;-83
2022/04/17 05:56:37;;;;;;;0.35;0.32;;;4.70;99.90;;;;;;5089144;28;20114;-82
2022/04/17 05:59:05;;;;;;;0.20;0.20;;;3.90;99.90;;;;;;5073029;28;20059;-83
2022/04/17 06:01:32;;;;;;;0.20;0.20;;;4.80;99.90;;;;;;5089095;28;20040;-80
2022/04/17 06:04:01;;;;;;;0.20;0.20;;;4.20;99.90;;;;;;5056564;28;20071;-80
2022/04/17 06:06:28;;;;;;;0.20;0.20;;;4.20;99.90;;;;;;5089209;28;20041;-80
2022/04/17 06:08:55;;;;;;;0.20;0.20;;;4.50;99.90;;;;;;5089135;28;20041;-82
2022/04/17 06:11:21;;;;;;;0.17;0.17;;;4.40;99.90;;;;;;5089361;28;20047;-80
2022/04/17 06:13:49;;;;;;;0.10;0.10;;;4.50;99.90;;;;;;5088990;28;20068;-80
2022/04/17 06:16:15;;;;;;;1.17;0.40;;;4.70;99.90;;;;;;5090882;28;20052;-83
2022/04/17 06:18:42;;;;;;;0.65;0.45;;;4.60;99.90;;;;;;5059909;28;20107;-82
2022/04/17 06:21:11;;;;;;;0.20;0.20;;;4.80;99.90;;;;;;5093382;28;20086;-81
2022/04/17 06:23:38;;;;;;;0.13;0.13;;;4.70;99.90;;;;;;5060869;28;20047;-80
2022/04/17 06:26:06;;;;;;;0.20;0.20;;;4.90;99.90;;;;;;5076761;28;20132;-80
2022/04/17 06:28:33;;;;;;;0.20;0.20;;;5.50;99.90;;;;;;5076604;28;20055;-83
2022/04/17 06:30:59;;;;;;;0.20;0.20;;;5.50;99.90;;;;;;5076793;28;20409;-83
2022/04/17 06:33:26;;;;;;;0.20;0.20;;;5.80;99.90;;;;;;5087751;28;20115;-83
2022/04/17 06:35:53;;;;;;;0.10;0.10;;;5.30;99.90;;;;;;5059439;28;20391;-80
2022/04/17 06:38:20;;;;;;;0.20;0.20;;;5.40;99.90;;;;;;5069848;28;20048;-84
2022/04/17 06:40:47;;;;;;;0.30;0.30;;;5.50;99.90;;;;;;5069997;28;20042;-80
2022/04/17 06:43:13;;;;;;;0.20;0.20;;;5.60;99.90;;;;;;5076584;28;20032;-80
2022/04/17 06:45:41;;;;;;;0.20;0.20;;;5.70;99.90;;;;;;5073210;28;20116;-84
2022/04/17 06:48:18;;;;;;;0.20;0.20;;;6.30;99.90;;;;;;5109525;28;20135;-83
2022/04/17 06:50:46;;;;;;;0.20;0.20;;;5.90;99.90;;;;;;5087931;28;20123;-84
2022/04/17 06:53:13;;;;;;;0.20;0.20;;;6.00;99.90;;;;;;5092020;28;20067;-80
2022/04/17 06:55:40;;;;;;;0.30;0.30;;;6.20;99.90;;;;;;5092973;28;20048;-84
2022/04/17 06:58:10;;;;;;;0.17;0.17;;;6.30;99.90;;;;;;5110021;28;20589;-80
2022/04/17 07:00:37;;;;;;;0.20;0.20;;;6.80;99.90;;;;;;5081103;28;20040;-80
2022/04/17 07:03:04;;;;;;;0.10;0.10;;;6.70;99.90;;;;;;5074461;28;20036;-80
2022/04/17 07:05:31;;;;;;;0.20;0.20;;;6.60;99.90;;;;;;5064894;28;20503;-80
2022/04/17 07:08:02;;;;;;;0.20;0.20;;;6.70;99.90;;;;;;5108527;28;20036;-80
2022/04/17 07:10:30;;;;;;;0.20;0.20;;;6.90;99.90;;;;;;5078705;28;20516;-80
2022/04/17 07:12:57;;;;;;;0.43;0.25;;;7.00;99.90;;;;;;5100295;28;20075;-80
2022/04/17 07:15:25;;;;;;;0.10;0.10;;;7.40;99.90;;;;;;5101953;28;20524;-85
2022/04/17 07:17:53;;;;;;;0.10;0.10;;;7.30;99.90;;;;;;5106855;28;20040;-80
2022/04/17 07:20:20;;;;;;;0.10;0.10;;;7.50;99.90;;;;;;5103211;28;20039;-84
2022/04/17 07:22:47;;;;;;;0.10;0.10;;;7.70;99.90;;;;;;5105017;28;20052;-85
2022/04/17 07:25:14;;;;;;;0.10;0.10;;;8.00;99.90;;;;;;5080580;28;20040;-80
2022/04/17 07:27:47;;;;;;;0.10;0.10;;;8.00;99.90;;;;;;5091849;28;20125;-86
2022/04/17 07:30:30;;;;;;;0.10;0.10;;;8.10;99.90;;;;;;5109109;28;20040;-80
2022/04/17 07:32:58;;;;;;;0.10;0.10;;;8.30;99.90;;;;;;5108581;28;20044;-82
2022/04/17 07:35:27;;;;;;;0.20;0.20;;;8.90;99.90;;;;;;5108619;28;20518;-81
2022/04/17 07:37:55;;;;;;;0.10;0.10;;;8.50;99.90;;;;;;5094615;28;20053;-84
2022/04/17 07:40:25;;;;;;;0.10;0.10;;;8.70;99.90;;;;;;5081978;28;20040;-87
2022/04/17 07:42:53;;;;;;;0.10;0.10;;;8.90;99.90;;;;;;5071801;28;20033;-88
2022/04/17 07:45:20;;;;;;;0.20;0.20;;;9.00;99.90;;;;;;5094613;28;20116;-86
2022/04/17 07:47:49;;;;;;;0.10;0.10;;;9.20;99.90;;;;;;5083053;28;20505;-82
2022/04/17 07:50:23;;;;;;;0.10;0.10;;;9.30;99.90;;;;;;5074378;28;20105;-81
2022/04/17 07:52:51;;;;;;;0.10;0.10;;;9.50;99.90;;;;;;5074487;28;20037;-85
2022/04/17 07:55:19;;;;;;;0.10;0.10;;;9.70;99.90;;;;;;5075014;28;20032;-81
2022/04/17 08:00:32;;;;;;;0.43;0.43;;;9.90;99.90;;;;;;5089214;28;20489;-86
2022/04/17 08:03:20;;;;;;;0.20;0.20;;;10.10;99.90;;;;;;5095889;28;20058;-86
2022/04/17 08:05:48;;;;;;;0.03;0.03;;;10.20;99.90;;;;;;5091156;28;20214;-86
2022/04/17 08:08:14;;;;;;;0.03;0.03;;;10.40;99.90;;;;;;5091640;28;20036;-81
2022/04/17 08:10:41;;;;;;;0.35;0.35;;;10.50;99.90;;;;;;5091253;28;20043;-84
2022/04/17 08:13:08;;;;;;;0.00;0.00;;;10.60;99.90;;;;;;5091961;28;20039;-86
2022/04/17 08:15:35;;;;;;;0.10;0.10;;;10.70;99.90;;;;;;5074654;28;20805;-84
2022/04/17 08:18:02;;;;;;;0.57;0.55;;;10.90;99.90;;;;;;5090149;28;20044;-81
2022/04/17 08:20:29;;;;;;;0.05;0.05;;;10.90;99.90;;;;;;5074422;28;20028;-80
2022/04/17 08:22:55;;;;;;;0.10;0.10;;;11.00;99.90;;;;;;5073950;28;20123;-83
2022/04/17 08:25:22;;;;;;;0.20;0.20;;;11.10;99.90;;;;;;5073759;28;20048;-80
2022/04/17 08:27:53;;;;;;;0.10;0.10;;;11.20;99.90;;;;;;5073771;28;20051;-81
2022/04/17 08:30:22;;;;;;;0.10;0.10;;;11.30;99.70;;;;;;5074353;28;20044;-81
2022/04/17 08:32:49;;;;;;;0.10;0.10;;;11.40;98.50;;;;;;5073715;28;20048;-82
2022/04/17 08:35:17;;;;;;;0.10;0.10;;;11.50;99.90;;;;;;5074635;28;20043;-87
2022/04/17 08:37:44;;;;;;;0.10;0.10;;;11.60;98.90;;;;;;5122632;28;20090;-81
2022/04/17 08:40:11;;;;;;;0.10;0.10;;;11.80;98.70;;;;;;5073167;28;20074;-85
2022/04/17 08:42:39;;;;;;;0.03;0.03;;;12.00;98.30;;;;;;5089556;28;20046;-85
2022/04/17 08:45:10;;;;;;;0.10;0.10;;;12.00;97.60;;;;;;5076803;28;20052;-82
2022/04/17 08:47:41;;;;;;;0.05;0.05;;;12.00;97.40;;;;;;5073252;28;20551;-81
2022/04/17 08:50:10;;;;;;;0.00;0.00;;;12.10;97.60;;;;;;5090350;28;20045;-86
2022/04/17 08:52:38;;;;;;;0.10;0.10;;;12.20;98.60;;;;;;5073674;28;20134;-85
2022/04/17 08:55:11;;;;;;;0.00;0.00;;;12.40;98.60;;;;;;5072203;28;20048;-81
2022/04/17 08:57:38;;;;;;;0.10;0.10;;;12.50;97.10;;;;;;5090512;28;20047;-82
2022/04/17 09:00:08;;;;;;;0.10;0.10;;;12.60;97.40;;;;;;5089733;28;20130;-81
2022/04/17 09:02:36;;;;;;;0.00;0.00;;;12.60;95.30;;;;;;5089555;28;20082;-81
2022/04/17 09:05:08;;;;;;;0.00;0.00;;;12.80;95.20;;;;;;5105013;28;20421;-85
2022/04/17 09:07:45;;;;;;;0.00;0.00;;;12.80;93.50;;;;;;5089369;28;20173;-86
2022/04/17 09:10:29;;;;;;;0.00;0.00;;;12.90;95.20;;;;;;5074823;28;20040;-84
2022/04/17 09:12:57;;;;;;;0.10;0.10;;;13.00;94.20;;;;;;5091238;28;20044;-79
2022/04/17 09:15:26;;;;;;;0.10;0.10;;;13.00;94.30;;;;;;5072570;28;20497;-79
2022/04/17 09:17:53;;;;;;;0.00;0.00;;;13.10;93.80;;;;;;5093994;28;20049;-79
2022/04/17 09:20:24;;;;;;;0.20;0.20;;;13.30;93.70;;;;;;5053241;28;20036;-79
2022/04/17 09:22:54;;;;;;;0.00;0.00;;;13.40;94.40;;;;;;5053158;28;20044;-79
2022/04/17 09:25:26;;;;;;;0.00;0.00;;;13.40;92.90;;;;;;5086566;28;20041;-81
2022/04/17 09:27:57;;;;;;;0.00;0.00;;;13.50;93.40;;;;;;5095172;28;20044;-80
2022/04/17 09:30:35;;;;;;;0.00;0.00;;;13.60;92.70;;;;;;5109339;28;20043;-84
2022/04/17 09:33:10;;;;;;;0.00;0.00;;;13.70;92.00;;;;;;5071439;28;20136;-79
2022/04/17 09:35:37;;;;;;;0.20;0.20;;;13.80;92.00;;;;;;5106450;28;20048;-80
2022/04/17 09:38:09;;;;;;;0.00;0.00;;;13.90;91.10;;;;;;5072538;28;20059;-84
2022/04/17 09:40:37;;;;;;;0.00;0.00;;;14.00;87.90;;;;;;5123215;28;20042;-84
2022/04/17 09:43:17;;;;;;;0.00;0.00;;;14.00;85.70;;;;;;5073275;28;20390;-80
2022/04/17 09:46:07;;;;;;;0.17;0.17;;;14.10;84.10;;;;;;5089251;28;20043;-84
2022/04/17 09:48:39;;;;;;;0.10;0.10;;;14.10;86.50;;;;;;5121769;28;20058;-85
2022/04/17 09:51:22;;;;;;;0.00;0.00;;;14.20;81.30;;;;;;5088427;28;20036;-78
2022/04/17 09:54:08;;;;;;;0.00;0.00;;;14.30;79.50;;;;;;5105277;28;20105;-78
2022/04/17 09:56:45;;;;;;;0.05;0.05;;;14.40;81.10;;;;;;5089389;28;20052;-78
2022/04/17 09:59:18;;;;;;;1.27;0.47;;;14.50;81.70;;;;;;5105980;28;20040;-84
2022/04/17 10:01:50;;;;;;;0.20;0.10;;;14.60;82.80;;;;;;5106185;28;20036;-87
2022/04/17 10:04:19;;;;;;;0.00;0.00;;;14.80;80.40;;;;;;5107156;28;20090;-87
2022/04/17 10:06:47;;;;;;;0.10;0.10;;;14.80;74.90;;;;;;5106710;28;20493;-87
2022/04/17 10:09:14;;;;;;;0.00;0.00;;;14.80;76.40;;;;;;5111067;28;20504;-80
2022/04/17 10:11:42;;;;;;;0.05;0.05;;;14.90;72.90;;;;;;5110240;28;20499;-85
2022/04/17 10:14:09;;;;;;;0.00;0.00;;;14.90;74.10;;;;;;5143114;28;20059;-84
2022/04/17 10:16:41;;;;;;;0.10;0.10;;;14.90;69.50;;;;;;5092611;28;20040;-85
2022/04/17 10:19:13;;;;;;;0.10;0.10;;;15.00;73.30;;;;;;5109069;28;20791;-84
2022/04/17 10:21:40;;;;;;;0.05;0.05;;;15.00;70.90;;;;;;5093367;28;20117;-84
2022/04/17 10:24:13;;;;;;;0.00;0.00;;;15.10;69.80;;;;;;5143085;28;20040;-84
2022/04/17 10:26:48;;;;;;;0.08;0.08;;;15.10;73.60;;;;;;5109468;28;20137;-85
2022/04/17 10:29:25;;;;;;;0.13;0.13;;;15.30;73.20;;;;;;5108936;28;20047;-79
2022/04/17 10:32:29;;;;;;;0.28;0.25;;;15.30;69.30;;;;;;5125618;28;20054;-80
2022/04/17 10:35:09;;;;;;;0.10;0.10;;;15.40;72.10;;;;;;5105498;28;20048;-80
2022/04/17 10:37:43;;;;;;;0.03;0.03;;;15.60;71.50;;;;;;5088885;28;20098;-79
2022/04/17 10:40:13;;;;;;;0.60;0.28;;;15.70;69.10;;;;;;5105149;28;20163;-80
2022/04/17 10:43:00;;;;;;;0.10;0.10;;;15.60;69.40;;;;;;5089041;28;20037;-79
2022/04/17 10:45:31;;;;;;;0.10;0.10;;;15.60;71.10;;;;;;5089118;28;20048;-84
2022/04/17 10:48:07;;;;;;;0.10;0.10;;;15.80;72.80;;;;;;5106264;28;20084;-85
2022/04/17 10:51:23;;;;;;;0.10;0.08;;;15.80;66.20;;;;;;5089613;28;20048;-79
2022/04/17 10:54:03;;;;;;;0.17;0.17;;;15.90;65.40;;;;;;5062636;28;20059;-79
2022/04/17 10:56:34;;;;;;;0.10;0.10;;;15.90;69.20;;;;;;5074374;28;20047;-80
2022/04/17 10:59:06;;;;;;;0.17;0.17;;;15.90;64.90;;;;;;5073438;28;20087;-79
2022/04/17 11:01:44;;;;;;;0.10;0.10;;;15.90;66.10;;;;;;5105655;28;20044;-85
2022/04/17 11:04:24;;;;;;;0.00;0.00;;;16.00;67.20;;;;;;5092335;28;20735;-79
2022/04/17 11:07:11;;;;;;;0.00;0.00;;;15.80;64.70;;;;;;5092733;28;20066;-80
2022/04/17 11:09:42;;;;;;;0.20;0.10;;;16.00;63.40;;;;;;5082111;28;20090;-84
2022/04/17 11:12:18;;;;;;;0.82;0.35;;;15.90;62.10;;;;;;5093411;28;20076;-84
2022/04/17 11:14:54;;;;;;;0.00;0.00;;;15.90;61.40;;;;;;5109199;28;20079;-79
2022/04/17 11:17:22;;;;;;;0.10;0.10;;;16.00;63.50;;;;;;5092043;28;20491;-85
2022/04/17 11:19:52;;;;;;;0.17;0.17;;;16.10;65.10;;;;;;5059641;28;20700;-84
2022/04/17 11:22:20;;;;;;;2.67;0.20;;;16.30;62.20;;;;;;5092248;28;20036;-79
2022/04/17 11:24:57;;;;;;;0.10;0.10;;;16.40;61.10;;;;;;5075545;28;20540;-79
2022/04/17 11:27:49;;;;;;;0.17;0.17;;;16.50;63.60;;;;;;5109102;28;20056;-79
2022/04/17 11:30:19;;;;;;;0.35;0.25;;;16.60;65.40;;;;;;5094269;28;20040;-79
2022/04/17 11:32:47;;;;;;;0.30;0.20;;;16.70;61.80;;;;;;5132702;28;20048;-85
2022/04/17 11:35:17;;;;;;;0.28;0.25;;;16.60;60.00;;;;;;5106934;28;20089;-84
2022/04/17 11:38:17;;;;;;;0.80;0.30;;;16.70;63.70;;;;;;5096977;28;20145;-84
2022/04/17 11:40:48;;;;;;;0.20;0.20;;;16.50;59.40;;;;;;5092577;28;20094;-79
2022/04/17 11:43:17;;;;;;;0.32;0.15;;;16.50;57.80;;;;;;5108798;28;20402;-84
2022/04/17 11:45:45;;;;;;;0.20;0.20;;;16.50;60.60;;;;;;5114901;28;20040;-81
2022/04/17 11:48:14;;;;;;;0.25;0.25;;;16.50;60.40;;;;;;5111735;28;20515;-82
2022/04/17 11:50:42;;;;;;;1.15;0.35;;;16.60;61.30;;;;;;5103445;28;20105;-80
2022/04/17 11:53:23;;;;;;;0.28;0.20;;;16.70;60.30;;;;;;5102834;28;20052;-84
2022/04/17 11:55:50;;;;;;;0.40;0.20;;;16.70;56.30;;;;;;5100565;28;20074;-79
2022/04/17 11:58:33;;;;;;;0.10;0.10;;;16.80;58.60;;;;;;5091311;28;20117;-79
2022/04/17 12:01:03;;;;;;;0.30;0.22;;;16.80;59.10;;;;;;5091601;28;20040;-84
2022/04/17 12:03:44;;;;;;;0.13;0.13;;;16.80;60.10;;;;;;5075104;28;20481;-80
2022/04/17 12:06:11;;;;;;;0.10;0.10;;;16.80;58.80;;;;;;5093900;28;20047;-80
2022/04/17 12:08:40;;;;;;;0.47;0.28;;;16.90;57.10;;;;;;5104517;28;20562;-84
2022/04/17 12:11:08;;;;;;;0.70;0.30;;;17.00;59.70;;;;;;5082296;28;20036;-86
2022/04/17 12:13:36;;;;;;;0.45;0.28;;;16.90;58.40;;;;;;5089921;28;20036;-81
2022/04/17 12:16:05;;;;;;;1.08;0.63;;;17.00;57.90;;;;;;5106962;28;20044;-81
2022/04/17 12:18:32;;;;;;;0.28;0.20;;;16.90;57.60;;;;;;5102257;28;20115;-86
2022/04/17 12:21:02;;;;;;;0.10;0.10;;;17.10;60.20;;;;;;5095681;28;20072;-81
2022/04/17 12:23:32;;;;;;;0.20;0.20;;;17.10;55.50;;;;;;5081276;28;20040;-81
2022/04/17 12:26:05;;;;;;;1.42;0.15;;;17.10;55.80;;;;;;5089517;28;20036;-81
2022/04/17 12:28:32;;;;;;;0.73;0.40;;;17.00;57.70;;;;;;5068841;28;20549;-86
2022/04/17 12:30:58;;;;;;;0.45;0.32;;;17.40;59.60;;;;;;5097910;28;20128;-85
2022/04/17 12:33:27;;;;;;;0.32;0.20;;;16.90;53.90;;;;;;5099959;28;20040;-86
2022/04/17 12:36:08;;;;;;;0.57;0.35;;;16.90;57.10;;;;;;5103396;28;20482;-81
2022/04/17 12:38:41;;;;;;;0.17;0.13;;;17.00;57.00;;;;;;5098281;28;20112;-86
2022/04/17 12:41:22;;;;;;;0.20;0.20;;;17.10;55.20;;;;;;5104580;28;20131;-81
2022/04/17 12:43:50;;;;;;;0.70;0.30;;;17.00;54.70;;;;;;5107000;28;20118;-81
2022/04/17 12:46:25;;;;;;;0.17;0.15;;;16.90;53.10;;;;;;5087596;28;20037;-81
2022/04/17 12:49:06;;;;;;;0.20;0.13;;;16.90;55.80;;;;;;5076055;28;20046;-86
2022/04/17 12:51:38;;;;;;;0.57;0.20;;;16.90;55.00;;;;;;5099203;28;20083;-81
2022/04/17 12:54:12;;;;;;;0.73;0.35;;;16.90;56.00;;;;;;5108679;28;20615;-81
2022/04/17 12:56:47;;;;;;;0.70;0.13;;;16.90;53.60;;;;;;5138810;28;20048;-86
2022/04/17 12:59:19;;;;;;;0.17;0.13;;;16.90;55.50;;;;;;5078581;28;20040;-82
2022/04/17 13:01:47;;;;;;;0.32;0.20;;;17.00;54.70;;;;;;5073520;28;20036;-81
2022/04/17 13:04:23;;;;;;;0.17;0.17;;;17.00;54.50;;;;;;5073342;28;20051;-81
2022/04/17 13:07:11;;;;;;;0.00;0.00;;;16.90;52.60;;;;;;5090294;28;20133;-86
2022/04/17 13:09:55;;;;;;;0.30;0.20;;;17.00;54.90;;;;;;5097761;28;20156;-86
2022/04/17 13:12:47;;;;;;;0.55;0.32;;;17.00;52.90;;;;;;5078171;28;20066;-87
2022/04/17 13:15:16;;;;;;;0.28;0.25;;;17.00;55.00;;;;;;5073299;28;20459;-81
2022/04/17 13:17:53;;;;;;;0.17;0.13;;;17.10;57.30;;;;;;5088588;28;20103;-81
2022/04/17 13:20:22;;;;;;;0.30;0.20;;;17.10;56.60;;;;;;5053726;28;20072;-85